Time,TemperatureF,DewpointF,PressureIn,WindDirection,WindDirectionDegrees,WindSpeedMPH,WindSpeedGustMPH,Humidity,HourlyPrecipIn,Conditions,Clouds,dailyrainin,SoftwareType,DateUTC
2013-06-12 00:02:00,64.0,44.0,-100.00,West,280,3.0,6.0,48,0.00,,,-99.99,,2013-06-12 06:02:00,
2013-06-12 00:12:00,63.0,43.0,-100.00,WNW,289,5.0,7.0,47,0.00,,,-99.99,,2013-06-12 06:12:00,
2013-06-12 00:22:00,63.0,43.0,-100.00,West,278,1.0,2.0,49,0.00,,,-99.99,,2013-06-12 06:22:00,
2013-06-12 00:32:00,63.0,43.0,-100.00,West,278,1.0,2.0,49,0.00,,,-99.99,,2013-06-12 06:32:00,
2013-06-12 00:42:00,62.0,43.0,-100.00,West,261,1.0,3.0,50,0.00,,,-99.99,,2013-06-12 06:42:00,
2013-06-12 00:52:00,62.0,43.0,-100.00,West,270,3.0,6.0,49,0.00,,,-99.99,,2013-06-12 06:52:00,
2013-06-12 01:02:00,62.0,43.0,-100.00,West,270,3.0,6.0,49,0.00,,,0.00,,2013-06-12 07:02:00,
2013-06-12 01:12:00,61.0,43.0,-100.00,WNW,289,4.0,7.0,50,0.00,,,0.00,,2013-06-12 07:12:00,
2013-06-12 01:22:00,61.0,43.0,-100.00,WNW,289,4.0,7.0,50,0.00,,,0.00,,2013-06-12 07:22:00,
2013-06-12 01:33:00,61.0,42.0,-100.00,WNW,285,3.0,5.0,50,0.00,,,0.00,,2013-06-12 07:33:00,
2013-06-12 01:43:00,61.0,42.0,-100.00,NNW,333,3.0,7.0,51,0.00,,,0.00,,2013-06-12 07:43:00,
2013-06-12 01:53:00,61.0,42.0,-100.00,NNW,333,3.0,7.0,51,0.00,,,0.00,,2013-06-12 07:53:00,
2013-06-12 02:02:00,61.0,42.0,-100.00,NW,305,7.0,11.0,50,0.00,,,0.00,,2013-06-12 08:02:00,
2013-06-12 02:12:00,61.0,42.0,-100.00,NW,305,7.0,11.0,50,0.00,,,0.00,,2013-06-12 08:12:00,
2013-06-12 02:22:00,61.0,42.0,-100.00,NW,305,7.0,11.0,50,0.00,,,0.00,,2013-06-12 08:22:00,
2013-06-12 02:33:00,61.0,42.0,-100.00,WNW,291,4.0,7.0,51,0.00,,,0.00,,2013-06-12 08:33:00,
2013-06-12 02:43:00,60.0,42.0,-100.00,WNW,282,4.0,8.0,52,0.00,,,0.00,,2013-06-12 08:43:00,
2013-06-12 02:53:00,60.0,42.0,-100.00,WNW,282,4.0,8.0,52,0.00,,,0.00,,2013-06-12 08:53:00,
2013-06-12 03:01:00,60.0,42.0,-100.00,WNW,285,2.0,4.0,53,0.00,,,0.00,,2013-06-12 09:01:00,
2013-06-12 03:11:00,60.0,42.0,-100.00,WNW,285,2.0,4.0,53,0.00,,,0.00,,2013-06-12 09:11:00,
2013-06-12 03:22:00,59.0,42.0,-100.00,North,3,3.0,5.0,52,0.00,,,0.00,,2013-06-12 09:22:00,
2013-06-12 03:33:00,59.0,42.0,-100.00,North,3,3.0,5.0,52,0.00,,,0.00,,2013-06-12 09:33:00,
2013-06-12 03:43:00,58.0,42.0,-100.00,NW,315,1.0,2.0,55,0.00,,,0.00,,2013-06-12 09:43:00,
2013-06-12 03:53:00,58.0,42.0,-100.00,NW,315,1.0,2.0,55,0.00,,,0.00,,2013-06-12 09:53:00,
2013-06-12 04:01:00,57.0,42.0,-100.00,SW,233,0.0,1.0,58,0.00,,,0.00,,2013-06-12 10:01:00,
2013-06-12 04:11:00,56.0,42.0,-100.00,WSW,241,1.0,2.0,58,0.00,,,0.00,,2013-06-12 10:11:00,
2013-06-12 04:23:00,56.0,42.0,-100.00,WSW,241,1.0,2.0,58,0.00,,,0.00,,2013-06-12 10:23:00,
2013-06-12 04:33:00,56.0,40.0,-100.00,SSW,212,0.0,2.0,56,0.00,,,0.00,,2013-06-12 10:33:00,
2013-06-12 04:43:00,54.0,41.0,-100.00,SE,133,1.0,2.0,61,0.00,,,0.00,,2013-06-12 10:43:00,
2013-06-12 04:53:00,54.0,41.0,-100.00,ESE,121,1.0,2.0,61,0.00,,,0.00,,2013-06-12 10:53:00,
2013-06-12 05:01:00,54.0,41.0,-100.00,ESE,121,1.0,2.0,61,0.00,,,0.00,,2013-06-12 11:01:00,
2013-06-12 05:12:00,53.0,40.0,-100.00,SE,143,1.0,1.0,60,0.00,,,0.00,,2013-06-12 11:12:00,
2013-06-12 05:24:00,53.0,40.0,-100.00,SE,143,1.0,1.0,60,0.00,,,0.00,,2013-06-12 11:24:00,
2013-06-12 05:33:00,52.0,40.0,-100.00,WNW,284,0.0,0.0,63,0.00,,,0.00,,2013-06-12 11:33:00,
2013-06-12 05:43:00,52.0,40.0,-100.00,West,267,0.0,1.0,64,0.00,,,0.00,,2013-06-12 11:43:00,
2013-06-12 05:53:00,52.0,40.0,-100.00,West,267,0.0,1.0,64,0.00,,,0.00,,2013-06-12 11:53:00,
2013-06-12 06:01:00,51.0,41.0,-100.00,WSW,253,0.0,1.0,69,0.00,,,0.00,,2013-06-12 12:01:00,
2013-06-12 06:11:00,52.0,42.0,-100.00,North,359,0.0,0.0,69,0.00,,,0.00,,2013-06-12 12:11:00,
2013-06-12 06:23:00,52.0,42.0,-100.00,North,359,0.0,0.0,69,0.00,,,0.00,,2013-06-12 12:23:00,
2013-06-12 06:33:00,50.0,41.0,-100.00,East,85,0.0,0.0,70,0.00,,,0.00,,2013-06-12 12:33:00,
2013-06-12 06:42:00,51.0,41.0,-100.00,WNW,289,1.0,2.0,69,0.00,,,0.00,,2013-06-12 12:42:00,
2013-06-12 06:53:00,51.0,41.0,-100.00,WNW,289,1.0,2.0,69,0.00,,,0.00,,2013-06-12 12:53:00,
2013-06-12 07:01:00,53.0,40.0,-100.00,North,354,3.0,4.0,60,0.00,,,0.00,,2013-06-12 13:01:00,
2013-06-12 07:11:00,53.0,40.0,-100.00,North,354,3.0,4.0,60,0.00,,,0.00,,2013-06-12 13:11:00,
2013-06-12 07:22:00,54.0,40.0,-100.00,WNW,291,3.0,6.0,60,0.00,,,0.00,,2013-06-12 13:22:00,
2013-06-12 07:32:00,54.0,39.0,-100.00,WNW,282,2.0,5.0,57,0.00,,,0.00,,2013-06-12 13:32:00,
2013-06-12 07:43:00,54.0,39.0,-100.00,West,271,2.0,5.0,58,0.00,,,0.00,,2013-06-12 13:43:00,
2013-06-12 07:53:00,54.0,39.0,-100.00,West,271,2.0,5.0,58,0.00,,,0.00,,2013-06-12 13:53:00,
2013-06-12 08:01:00,53.0,40.0,-100.00,West,265,2.0,4.0,63,0.00,,,0.00,,2013-06-12 14:01:00,
2013-06-12 08:11:00,54.0,39.0,-100.00,West,277,6.0,11.0,56,0.00,,,0.00,,2013-06-12 14:11:00,
2013-06-12 08:23:00,54.0,39.0,-100.00,West,277,6.0,11.0,56,0.00,,,0.00,,2013-06-12 14:23:00,
2013-06-12 08:33:00,54.0,39.0,-100.00,West,277,6.0,11.0,56,0.00,,,0.00,,2013-06-12 14:33:00,
2013-06-12 08:43:00,54.0,39.0,-100.00,West,277,6.0,11.0,56,0.00,,,0.00,,2013-06-12 14:43:00,
2013-06-12 09:01:00,56.0,39.0,-100.00,WNW,285,4.0,7.0,54,0.00,,,0.00,,2013-06-12 15:01:00,
2013-06-12 09:12:00,55.0,41.0,-100.00,WNW,287,3.0,6.0,59,0.00,,,0.00,,2013-06-12 15:12:00,
2013-06-12 09:23:00,55.0,41.0,-100.00,WNW,287,3.0,6.0,59,0.00,,,0.00,,2013-06-12 15:23:00,
2013-06-12 09:32:00,57.0,41.0,-100.00,NW,308,4.0,6.0,56,0.00,,,0.00,,2013-06-12 15:32:00,
2013-06-12 09:43:00,58.0,42.0,-100.00,NNW,328,2.0,5.0,55,0.00,,,0.00,,2013-06-12 15:43:00,
2013-06-12 09:52:00,59.0,42.0,-100.00,WNW,294,4.0,6.0,52,0.00,,,0.00,,2013-06-12 15:52:00,
2013-06-12 10:01:00,59.0,42.0,-100.00,WNW,294,4.0,6.0,52,0.00,,,0.00,,2013-06-12 16:01:00,
2013-06-12 10:11:00,60.0,41.0,-100.00,NW,305,4.0,6.0,48,0.00,,,0.00,,2013-06-12 16:11:00,
2013-06-12 10:21:00,60.0,41.0,-100.00,NW,305,4.0,6.0,48,0.00,,,0.00,,2013-06-12 16:21:00,
2013-06-12 10:32:00,62.0,40.0,-100.00,West,280,3.0,6.0,45,0.00,,,0.00,,2013-06-12 16:32:00,
2013-06-12 10:43:00,63.0,41.0,-100.00,NW,308,5.0,9.0,45,0.00,,,0.00,,2013-06-12 16:43:00,
2013-06-12 10:52:00,64.0,42.0,-100.00,NW,304,2.0,3.0,44,0.00,,,0.00,,2013-06-12 16:52:00,
2013-06-12 11:01:00,64.0,42.0,-100.00,NW,304,2.0,3.0,44,0.00,,,0.00,,2013-06-12 17:01:00,
2013-06-12 11:11:00,65.0,44.0,-100.00,NW,322,2.0,2.0,47,0.00,,,0.00,,2013-06-12 17:11:00,
2013-06-12 11:22:00,67.0,44.0,-100.00,West,265,1.0,3.0,42,0.00,,,0.00,,2013-06-12 17:22:00,
2013-06-12 11:32:00,67.0,44.0,-100.00,West,265,1.0,3.0,42,0.00,,,0.00,,2013-06-12 17:32:00,
2013-06-12 11:42:00,67.0,44.0,-100.00,SE,140,3.0,6.0,43,0.00,,,0.00,,2013-06-12 17:42:00,
2013-06-12 11:52:00,69.0,43.0,-100.00,NW,312,1.0,3.0,40,0.00,,,0.00,,2013-06-12 17:52:00,
2013-06-12 12:02:00,69.0,43.0,-100.00,NW,312,1.0,3.0,40,0.00,,,0.00,,2013-06-12 18:02:00,
2013-06-12 12:12:00,69.0,43.0,-100.00,NW,312,1.0,3.0,40,0.00,,,0.00,,2013-06-12 18:12:00,
2013-06-12 12:22:00,69.0,43.0,-100.00,NW,312,1.0,3.0,40,0.00,,,0.00,,2013-06-12 18:22:00,
2013-06-12 12:32:00,69.0,41.0,-100.00,SE,143,3.0,6.0,37,0.00,,,0.00,,2013-06-12 18:32:00,
2013-06-12 12:43:00,70.0,42.0,-100.00,SSW,192,3.0,6.0,36,0.00,,,0.00,,2013-06-12 18:43:00,
2013-06-12 12:53:00,70.0,42.0,-100.00,SSW,192,3.0,6.0,36,0.00,,,0.00,,2013-06-12 18:53:00,
2013-06-12 13:01:00,70.0,42.0,-100.00,SSW,192,3.0,6.0,36,0.00,,,0.00,,2013-06-12 19:01:00,
2013-06-12 13:11:00,70.0,42.0,-100.00,SSW,192,3.0,6.0,36,0.00,,,0.00,,2013-06-12 19:11:00,
2013-06-12 13:22:00,71.0,43.0,-100.00,SSE,158,9.0,12.0,36,0.00,,,0.00,,2013-06-12 19:22:00,
2013-06-12 13:32:00,71.0,42.0,-100.00,SSE,168,6.0,9.0,35,0.00,,,0.00,,2013-06-12 19:32:00,
2013-06-12 13:42:00,71.0,45.0,-100.00,WSW,254,2.0,5.0,39,0.00,,,0.00,,2013-06-12 19:42:00,
2013-06-12 13:52:00,71.0,45.0,-100.00,WSW,254,2.0,5.0,39,0.00,,,0.00,,2013-06-12 19:52:00,
2013-06-12 14:01:00,72.0,42.0,-100.00,SSE,165,3.0,6.0,34,0.00,,,0.00,,2013-06-12 20:01:00,
2013-06-12 14:11:00,72.0,42.0,-100.00,SSE,161,8.0,12.0,34,0.00,,,0.00,,2013-06-12 20:11:00,
2013-06-12 14:21:00,72.0,42.0,-100.00,SSE,161,8.0,12.0,34,0.00,,,0.00,,2013-06-12 20:21:00,
2013-06-12 14:32:00,73.0,42.0,-100.00,South,172,6.0,12.0,32,0.00,,,0.00,,2013-06-12 20:32:00,
2013-06-12 14:42:00,74.0,44.0,-100.00,South,188,4.0,8.0,34,0.00,,,0.00,,2013-06-12 20:42:00,
2013-06-12 14:54:00,74.0,44.0,-100.00,South,188,4.0,8.0,34,0.00,,,0.00,,2013-06-12 20:54:00,
2013-06-12 15:01:00,73.0,40.0,-100.00,South,175,7.0,12.0,30,0.00,,,0.00,,2013-06-12 21:01:00,
2013-06-12 15:11:00,74.0,40.0,-100.00,South,171,6.0,9.0,29,0.00,,,0.00,,2013-06-12 21:11:00,
2013-06-12 15:21:00,74.0,40.0,-100.00,South,171,6.0,9.0,29,0.00,,,0.00,,2013-06-12 21:21:00,
2013-06-12 15:33:00,74.0,36.0,-100.00,South,174,4.0,11.0,25,0.00,,,0.00,,2013-06-12 21:33:00,
2013-06-12 15:43:00,73.0,38.0,-100.00,South,172,8.0,12.0,27,0.00,,,0.00,,2013-06-12 21:43:00,
2013-06-12 15:53:00,75.0,40.0,-100.00,South,191,4.0,11.0,28,0.00,,,0.00,,2013-06-12 21:53:00,
2013-06-12 16:01:00,75.0,40.0,-100.00,South,191,4.0,11.0,28,0.00,,,0.00,,2013-06-12 22:01:00,
2013-06-12 16:11:00,74.0,36.0,-100.00,SSE,155,2.0,4.0,26,0.00,,,0.00,,2013-06-12 22:11:00,
2013-06-12 16:22:00,74.0,36.0,-100.00,SSE,155,2.0,4.0,26,0.00,,,0.00,,2013-06-12 22:22:00,
2013-06-12 16:32:00,75.0,36.0,-100.00,SSE,162,4.0,7.0,24,0.00,,,0.00,,2013-06-12 22:32:00,
2013-06-12 16:43:00,74.0,36.0,-100.00,SSE,155,9.0,14.0,25,0.00,,,0.00,,2013-06-12 22:43:00,
2013-06-12 16:52:00,74.0,36.0,-100.00,SSE,155,9.0,14.0,25,0.00,,,0.00,,2013-06-12 22:52:00,
2013-06-12 17:01:00,74.0,37.0,-100.00,NW,306,2.0,4.0,27,0.00,,,0.00,,2013-06-12 23:01:00,
2013-06-12 17:11:00,74.0,36.0,-100.00,South,169,4.0,8.0,25,0.00,,,0.00,,2013-06-12 23:11:00,
2013-06-12 17:22:00,74.0,36.0,-100.00,South,169,4.0,8.0,25,0.00,,,0.00,,2013-06-12 23:22:00,
2013-06-12 17:32:00,74.0,32.0,-100.00,South,171,4.0,7.0,21,0.00,,,0.00,,2013-06-12 23:32:00,
2013-06-12 17:42:00,73.0,35.0,-100.00,WNW,282,1.0,4.0,25,0.00,,,0.00,,2013-06-12 23:42:00,
2013-06-12 17:52:00,74.0,33.0,-100.00,East,85,2.0,3.0,22,0.00,,,0.00,,2013-06-12 23:52:00,
2013-06-12 18:01:00,74.0,33.0,-100.00,East,85,2.0,3.0,22,0.00,,,0.00,,2013-06-13 00:01:00,
2013-06-12 18:11:00,74.0,33.0,-100.00,East,85,2.0,3.0,22,0.00,,,0.00,,2013-06-13 00:11:00,
2013-06-12 18:22:00,74.0,33.0,-100.00,East,85,2.0,3.0,22,0.00,,,0.00,,2013-06-13 00:22:00,
2013-06-12 18:32:00,74.0,32.0,-100.00,SSW,213,1.0,2.0,21,0.00,,,0.00,,2013-06-13 00:32:00,
2013-06-12 18:43:00,73.0,36.0,-100.00,WNW,285,2.0,4.0,26,0.00,,,0.00,,2013-06-13 00:43:00,
2013-06-12 18:52:00,73.0,36.0,-100.00,NW,309,3.0,4.0,26,0.00,,,0.00,,2013-06-13 00:52:00,
2013-06-12 19:01:00,73.0,36.0,-100.00,NW,309,3.0,4.0,26,0.00,,,0.00,,2013-06-13 01:01:00,
2013-06-12 19:11:00,74.0,40.0,-100.00,WNW,296,4.0,6.0,30,0.00,,,0.00,,2013-06-13 01:11:00,
2013-06-12 19:22:00,74.0,40.0,-100.00,WNW,296,4.0,6.0,30,0.00,,,0.00,,2013-06-13 01:22:00,
2013-06-12 19:32:00,73.0,39.0,-100.00,NW,322,5.0,8.0,29,0.00,,,0.00,,2013-06-13 01:32:00,
2013-06-12 19:42:00,73.0,37.0,-100.00,WNW,295,6.0,10.0,27,0.00,,,0.00,,2013-06-13 01:42:00,
2013-06-12 19:53:00,73.0,37.0,-100.00,WNW,295,6.0,10.0,27,0.00,,,0.00,,2013-06-13 01:53:00,
2013-06-12 20:01:00,73.0,37.0,-100.00,NW,309,6.0,8.0,27,0.00,,,0.00,,2013-06-13 02:01:00,
2013-06-12 20:11:00,71.0,38.0,-100.00,WNW,301,4.0,6.0,30,0.00,,,0.00,,2013-06-13 02:11:00,
2013-06-12 20:22:00,71.0,38.0,-100.00,WNW,301,4.0,6.0,30,0.00,,,0.00,,2013-06-13 02:22:00,
2013-06-12 20:32:00,71.0,35.0,-100.00,NW,313,4.0,9.0,27,0.00,,,0.00,,2013-06-13 02:32:00,
2013-06-12 20:42:00,71.0,34.0,-100.00,NW,318,4.0,7.0,26,0.00,,,0.00,,2013-06-13 02:42:00,
2013-06-12 20:52:00,69.0,41.0,-100.00,WNW,294,5.0,8.0,36,0.00,,,0.00,,2013-06-13 02:52:00,
2013-06-12 21:01:00,69.0,41.0,-100.00,WNW,294,5.0,8.0,36,0.00,,,0.00,,2013-06-13 03:01:00,
2013-06-12 21:11:00,68.0,41.0,-100.00,NW,322,7.0,11.0,38,0.00,,,0.00,,2013-06-13 03:11:00,
2013-06-12 21:22:00,67.0,42.0,-100.00,NW,304,5.0,8.0,41,0.00,,,0.00,,2013-06-13 03:22:00,
2013-06-12 21:33:00,67.0,42.0,-100.00,NW,304,5.0,8.0,41,0.00,,,0.00,,2013-06-13 03:33:00,
2013-06-12 21:42:00,65.0,43.0,-100.00,NNW,339,6.0,11.0,44,0.00,,,0.00,,2013-06-13 03:42:00,
2013-06-12 21:52:00,65.0,44.0,-100.00,NW,312,4.0,6.0,46,0.00,,,0.00,,2013-06-13 03:52:00,
2013-06-12 22:01:00,65.0,44.0,-100.00,NW,312,4.0,6.0,46,0.00,,,0.00,,2013-06-13 04:01:00,
2013-06-12 22:11:00,64.0,44.0,-100.00,NNW,343,3.0,5.0,47,0.00,,,0.00,,2013-06-13 04:11:00,
2013-06-12 22:22:00,64.0,44.0,-100.00,NNW,343,3.0,5.0,47,0.00,,,0.00,,2013-06-13 04:22:00,
2013-06-12 22:32:00,64.0,44.0,-100.00,NNW,343,3.0,5.0,47,0.00,,,0.00,,2013-06-13 04:32:00,
2013-06-12 22:43:00,64.0,44.0,-100.00,NNW,329,2.0,3.0,48,0.00,,,0.00,,2013-06-13 04:43:00,
2013-06-12 22:53:00,63.0,44.0,-100.00,WSW,244,1.0,2.0,49,0.00,,,0.00,,2013-06-13 04:53:00,
2013-06-12 23:02:00,63.0,44.0,-100.00,WSW,244,1.0,2.0,49,0.00,,,0.00,,2013-06-13 05:02:00,
2013-06-12 23:11:00,63.0,44.0,-100.00,West,264,1.0,2.0,49,0.00,,,0.00,,2013-06-13 05:11:00,
2013-06-12 23:23:00,63.0,44.0,-100.00,West,264,1.0,2.0,49,0.00,,,0.00,,2013-06-13 05:23:00,
2013-06-12 23:32:00,62.0,43.0,-100.00,WNW,291,5.0,8.0,49,0.00,,,0.00,,2013-06-13 05:32:00,
2013-06-12 23:42:00,62.0,42.0,-100.00,NW,304,4.0,9.0,49,0.00,,,0.00,,2013-06-13 05:42:00,
2013-06-12 23:53:00,62.0,42.0,-100.00,NW,304,4.0,9.0,49,0.00,,,0.00,,2013-06-13 05:53:00,